sensor_id;sensor_type;location;lat;lon;timestamp;temperature;humidity
3348;DHT22;1687;49.540;8.574;2022-08-21T00:02:21;20.10;51.80
3348;DHT22;1687;49.540;8.574;2022-08-21T00:04:48;20.10;51.90
3348;DHT22;1687;49.540;8.574;2022-08-21T00:07:14;20.10;51.90
3348;DHT22;1687;49.540;8.574;2022-08-21T00:09:40;20.10;52.00
3348;DHT22;1687;49.540;8.574;2022-08-21T00:12:07;20.00;52.00
3348;DHT22;1687;49.540;8.574;2022-08-21T00:14:33;20.00;52.70
3348;DHT22;1687;49.540;8.574;2022-08-21T00:16:59;20.00;52.20
3348;DHT22;1687;49.540;8.574;2022-08-21T00:19:25;20.00;52.20
3348;DHT22;1687;49.540;8.574;2022-08-21T00:21:53;20.00;52.30
3348;DHT22;1687;49.540;8.574;2022-08-21T00:24:20;20.00;52.30
3348;DHT22;1687;49.540;8.574;2022-08-21T00:26:48;20.00;52.50
3348;DHT22;1687;49.540;8.574;2022-08-21T00:29:14;20.00;52.50
3348;DHT22;1687;49.540;8.574;2022-08-21T00:31:41;20.00;52.60
3348;DHT22;1687;49.540;8.574;2022-08-21T00:34:07;20.00;52.70
3348;DHT22;1687;49.540;8.574;2022-08-21T00:36:35;20.00;52.70
3348;DHT22;1687;49.540;8.574;2022-08-21T00:39:02;20.00;53.40
3348;DHT22;1687;49.540;8.574;2022-08-21T00:41:33;20.00;52.90
3348;DHT22;1687;49.540;8.574;2022-08-21T00:44:01;20.00;52.90
3348;DHT22;1687;49.540;8.574;2022-08-21T00:46:26;20.00;53.00
3348;DHT22;1687;49.540;8.574;2022-08-21T00:48:52;19.90;52.90
3348;DHT22;1687;49.540;8.574;2022-08-21T00:51:38;19.90;53.10
3348;DHT22;1687;49.540;8.574;2022-08-21T00:54:09;19.90;53.20
3348;DHT22;1687;49.540;8.574;2022-08-21T00:56:35;19.80;53.20
3348;DHT22;1687;49.540;8.574;2022-08-21T00:59:02;19.80;53.30
3348;DHT22;1687;49.540;8.574;2022-08-21T01:01:29;19.60;53.20
3348;DHT22;1687;49.540;8.574;2022-08-21T01:03:54;19.50;53.40
3348;DHT22;1687;49.540;8.574;2022-08-21T01:06:20;19.40;53.70
3348;DHT22;1687;49.540;8.574;2022-08-21T01:08:46;19.40;53.80
3348;DHT22;1687;49.540;8.574;2022-08-21T01:11:13;19.40;54.00
3348;DHT22;1687;49.540;8.574;2022-08-21T01:13:40;19.40;54.00
3348;DHT22;1687;49.540;8.574;2022-08-21T01:16:10;19.30;54.00
3348;DHT22;1687;49.540;8.574;2022-08-21T01:18:36;19.30;54.20
3348;DHT22;1687;49.540;8.574;2022-08-21T01:21:14;19.30;54.30
3348;DHT22;1687;49.540;8.574;2022-08-21T01:23:45;19.30;54.40
3348;DHT22;1687;49.540;8.574;2022-08-21T01:26:13;19.20;54.40
3348;DHT22;1687;49.540;8.574;2022-08-21T01:29:11;19.10;54.40
3348;DHT22;1687;49.540;8.574;2022-08-21T01:31:37;19.00;54.60
3348;DHT22;1687;49.540;8.574;2022-08-21T01:34:04;18.90;55.40
3348;DHT22;1687;49.540;8.574;2022-08-21T01:36:30;18.90;55.00
3348;DHT22;1687;49.540;8.574;2022-08-21T01:38:57;18.90;55.00
3348;DHT22;1687;49.540;8.574;2022-08-21T01:41:22;18.90;55.70
3348;DHT22;1687;49.540;8.574;2022-08-21T01:43:49;19.00;55.40
3348;DHT22;1687;49.540;8.574;2022-08-21T01:46:15;18.90;55.30
3348;DHT22;1687;49.540;8.574;2022-08-21T01:48:41;18.90;55.40
3348;DHT22;1687;49.540;8.574;2022-08-21T01:51:08;19.00;55.60
3348;DHT22;1687;49.540;8.574;2022-08-21T01:53:35;19.00;55.60
3348;DHT22;1687;49.540;8.574;2022-08-21T01:56:08;19.00;56.10
3348;DHT22;1687;49.540;8.574;2022-08-21T01:58:36;18.90;55.60
3348;DHT22;1687;49.540;8.574;2022-08-21T02:01:03;18.90;55.80
3348;DHT22;1687;49.540;8.574;2022-08-21T02:03:29;18.80;55.80
3348;DHT22;1687;49.540;8.574;2022-08-21T02:05:56;18.80;56.50
3348;DHT22;1687;49.540;8.574;2022-08-21T02:08:22;18.80;56.00
3348;DHT22;1687;49.540;8.574;2022-08-21T02:10:49;18.80;56.10
3348;DHT22;1687;49.540;8.574;2022-08-21T02:13:16;18.80;56.20
3348;DHT22;1687;49.540;8.574;2022-08-21T02:15:42;18.70;56.30
3348;DHT22;1687;49.540;8.574;2022-08-21T02:18:08;18.70;56.30
3348;DHT22;1687;49.540;8.574;2022-08-21T02:20:41;18.70;56.40
3348;DHT22;1687;49.540;8.574;2022-08-21T02:23:10;18.70;56.50
3348;DHT22;1687;49.540;8.574;2022-08-21T02:25:37;18.70;56.60
3348;DHT22;1687;49.540;8.574;2022-08-21T02:28:06;18.60;56.50
3348;DHT22;1687;49.540;8.574;2022-08-21T02:30:36;18.50;56.60
3348;DHT22;1687;49.540;8.574;2022-08-21T02:33:05;18.50;56.70
3348;DHT22;1687;49.540;8.574;2022-08-21T02:35:31;18.50;56.90
3348;DHT22;1687;49.540;8.574;2022-08-21T02:38:02;18.50;56.90
3348;DHT22;1687;49.540;8.574;2022-08-21T02:40:34;18.50;56.90
3348;DHT22;1687;49.540;8.574;2022-08-21T02:43:02;18.50;56.90
3348;DHT22;1687;49.540;8.574;2022-08-21T02:45:30;18.50;57.00
3348;DHT22;1687;49.540;8.574;2022-08-21T02:47:58;18.50;57.10
3348;DHT22;1687;49.540;8.574;2022-08-21T02:50:32;18.40;57.20
3348;DHT22;1687;49.540;8.574;2022-08-21T02:53:00;18.30;57.20
3348;DHT22;1687;49.540;8.574;2022-08-21T02:55:29;18.30;57.30
3348;DHT22;1687;49.540;8.574;2022-08-21T02:57:57;18.20;57.30
3348;DHT22;1687;49.540;8.574;2022-08-21T03:00:25;18.20;57.40
3348;DHT22;1687;49.540;8.574;2022-08-21T03:02:52;18.10;57.40
3348;DHT22;1687;49.540;8.574;2022-08-21T03:05:18;18.00;57.30
3348;DHT22;1687;49.540;8.574;2022-08-21T03:07:46;17.90;57.50
3348;DHT22;1687;49.540;8.574;2022-08-21T03:10:14;17.80;57.60
3348;DHT22;1687;49.540;8.574;2022-08-21T03:12:40;17.80;57.70
3348;DHT22;1687;49.540;8.574;2022-08-21T03:15:09;17.70;57.70
3348;DHT22;1687;49.540;8.574;2022-08-21T03:17:37;17.70;57.90
3348;DHT22;1687;49.540;8.574;2022-08-21T03:20:06;17.70;58.00
3348;DHT22;1687;49.540;8.574;2022-08-21T03:22:33;17.60;58.00
3348;DHT22;1687;49.540;8.574;2022-08-21T03:24:59;17.60;58.10
3348;DHT22;1687;49.540;8.574;2022-08-21T03:27:26;17.60;58.20
3348;DHT22;1687;49.540;8.574;2022-08-21T03:29:53;17.60;58.30
3348;DHT22;1687;49.540;8.574;2022-08-21T03:32:20;17.60;58.30
3348;DHT22;1687;49.540;8.574;2022-08-21T03:34:46;17.60;58.30
3348;DHT22;1687;49.540;8.574;2022-08-21T03:37:13;17.50;58.30
3348;DHT22;1687;49.540;8.574;2022-08-21T03:39:40;17.40;58.30
3348;DHT22;1687;49.540;8.574;2022-08-21T03:42:08;17.40;58.50
3348;DHT22;1687;49.540;8.574;2022-08-21T03:44:34;17.40;58.60
3348;DHT22;1687;49.540;8.574;2022-08-21T03:47:01;17.40;58.70
3348;DHT22;1687;49.540;8.574;2022-08-21T03:49:27;17.50;58.90
3348;DHT22;1687;49.540;8.574;2022-08-21T03:51:53;17.50;58.60
3348;DHT22;1687;49.540;8.574;2022-08-21T03:54:20;17.30;58.70
3348;DHT22;1687;49.540;8.574;2022-08-21T03:56:46;17.30;58.90
3348;DHT22;1687;49.540;8.574;2022-08-21T03:59:12;17.20;58.90
3348;DHT22;1687;49.540;8.574;2022-08-21T04:01:39;17.20;59.10
3348;DHT22;1687;49.540;8.574;2022-08-21T04:04:05;17.20;59.10
3348;DHT22;1687;49.540;8.574;2022-08-21T04:06:31;17.20;59.20
3348;DHT22;1687;49.540;8.574;2022-08-21T04:08:57;17.20;59.30
3348;DHT22;1687;49.540;8.574;2022-08-21T04:11:23;17.20;59.30
3348;DHT22;1687;49.540;8.574;2022-08-21T04:13:49;17.20;59.40
3348;DHT22;1687;49.540;8.574;2022-08-21T04:16:15;17.20;59.50
3348;DHT22;1687;49.540;8.574;2022-08-21T04:18:41;17.30;59.50
3348;DHT22;1687;49.540;8.574;2022-08-21T04:21:09;17.30;59.60
3348;DHT22;1687;49.540;8.574;2022-08-21T04:23:36;17.30;59.70
3348;DHT22;1687;49.540;8.574;2022-08-21T04:26:02;17.30;59.60
3348;DHT22;1687;49.540;8.574;2022-08-21T04:28:29;17.40;59.80
3348;DHT22;1687;49.540;8.574;2022-08-21T04:30:55;17.40;59.80
3348;DHT22;1687;49.540;8.574;2022-08-21T04:33:21;17.40;59.80
3348;DHT22;1687;49.540;8.574;2022-08-21T04:35:48;17.40;59.90
3348;DHT22;1687;49.540;8.574;2022-08-21T04:38:14;17.40;60.00
3348;DHT22;1687;49.540;8.574;2022-08-21T04:40:40;17.40;60.10
3348;DHT22;1687;49.540;8.574;2022-08-21T04:43:08;17.40;60.00
3348;DHT22;1687;49.540;8.574;2022-08-21T04:45:40;17.40;60.00
3348;DHT22;1687;49.540;8.574;2022-08-21T04:48:10;17.40;60.20
3348;DHT22;1687;49.540;8.574;2022-08-21T04:50:45;17.50;60.30
3348;DHT22;1687;49.540;8.574;2022-08-21T04:53:19;17.60;60.30
3348;DHT22;1687;49.540;8.574;2022-08-21T04:55:48;17.60;60.30
3348;DHT22;1687;49.540;8.574;2022-08-21T04:58:16;17.60;60.30
3348;DHT22;1687;49.540;8.574;2022-08-21T05:00:45;17.60;60.30
3348;DHT22;1687;49.540;8.574;2022-08-21T05:03:12;17.70;61.30
3348;DHT22;1687;49.540;8.574;2022-08-21T05:05:40;17.60;60.30
3348;DHT22;1687;49.540;8.574;2022-08-21T05:08:07;17.60;60.30
3348;DHT22;1687;49.540;8.574;2022-08-21T05:10:38;17.50;60.50
3348;DHT22;1687;49.540;8.574;2022-08-21T05:13:03;17.50;60.60
3348;DHT22;1687;49.540;8.574;2022-08-21T05:15:31;17.50;60.60
3348;DHT22;1687;49.540;8.574;2022-08-21T05:17:57;17.50;60.80
3348;DHT22;1687;49.540;8.574;2022-08-21T05:20:22;17.60;61.00
3348;DHT22;1687;49.540;8.574;2022-08-21T05:22:48;17.70;61.10
3348;DHT22;1687;49.540;8.574;2022-08-21T05:25:15;17.80;61.00
3348;DHT22;1687;49.540;8.574;2022-08-21T05:27:41;17.80;61.00
3348;DHT22;1687;49.540;8.574;2022-08-21T05:30:08;17.80;61.10
3348;DHT22;1687;49.540;8.574;2022-08-21T05:32:35;17.90;61.20
3348;DHT22;1687;49.540;8.574;2022-08-21T05:35:02;17.90;61.10
3348;DHT22;1687;49.540;8.574;2022-08-21T05:37:30;18.00;61.30
3348;DHT22;1687;49.540;8.574;2022-08-21T05:39:55;18.00;61.10
3348;DHT22;1687;49.540;8.574;2022-08-21T05:42:21;18.10;61.50
3348;DHT22;1687;49.540;8.574;2022-08-21T05:44:47;18.10;61.50
3348;DHT22;1687;49.540;8.574;2022-08-21T05:47:12;18.20;61.30
3348;DHT22;1687;49.540;8.574;2022-08-21T05:49:38;18.20;61.30
3348;DHT22;1687;49.540;8.574;2022-08-21T05:52:04;18.30;61.60
3348;DHT22;1687;49.540;8.574;2022-08-21T05:54:30;18.40;61.80
3348;DHT22;1687;49.540;8.574;2022-08-21T05:56:56;18.60;61.90
3348;DHT22;1687;49.540;8.574;2022-08-21T05:59:23;18.70;61.60
3348;DHT22;1687;49.540;8.574;2022-08-21T06:01:49;18.80;61.50
3348;DHT22;1687;49.540;8.574;2022-08-21T06:04:17;18.80;61.30
3348;DHT22;1687;49.540;8.574;2022-08-21T06:06:42;18.80;61.50
3348;DHT22;1687;49.540;8.574;2022-08-21T06:09:08;18.80;61.40
3348;DHT22;1687;49.540;8.574;2022-08-21T06:11:34;18.90;61.60
3348;DHT22;1687;49.540;8.574;2022-08-21T06:14:00;19.00;61.70
3348;DHT22;1687;49.540;8.574;2022-08-21T06:16:26;19.20;61.90
3348;DHT22;1687;49.540;8.574;2022-08-21T06:18:53;19.40;61.80
3348;DHT22;1687;49.540;8.574;2022-08-21T06:21:19;19.50;61.50
3348;DHT22;1687;49.540;8.574;2022-08-21T06:23:45;19.60;61.60
3348;DHT22;1687;49.540;8.574;2022-08-21T06:26:12;19.80;61.50
3348;DHT22;1687;49.540;8.574;2022-08-21T06:28:40;19.90;61.50
3348;DHT22;1687;49.540;8.574;2022-08-21T06:31:20;19.90;61.00
3348;DHT22;1687;49.540;8.574;2022-08-21T06:33:47;19.90;61.00
3348;DHT22;1687;49.540;8.574;2022-08-21T06:36:13;19.70;60.60
3348;DHT22;1687;49.540;8.574;2022-08-21T06:38:40;19.70;61.00
3348;DHT22;1687;49.540;8.574;2022-08-21T06:41:06;19.80;61.20
3348;DHT22;1687;49.540;8.574;2022-08-21T06:43:32;19.90;60.90
3348;DHT22;1687;49.540;8.574;2022-08-21T06:45:58;20.00;61.00
3348;DHT22;1687;49.540;8.574;2022-08-21T06:48:24;20.00;61.10
3348;DHT22;1687;49.540;8.574;2022-08-21T06:50:50;20.10;61.00
3348;DHT22;1687;49.540;8.574;2022-08-21T06:53:19;20.10;61.00
3348;DHT22;1687;49.540;8.574;2022-08-21T06:55:47;20.30;61.20
3348;DHT22;1687;49.540;8.574;2022-08-21T06:58:13;20.50;61.20
3348;DHT22;1687;49.540;8.574;2022-08-21T07:00:42;20.60;61.10
3348;DHT22;1687;49.540;8.574;2022-08-21T07:03:18;20.70;60.60
3348;DHT22;1687;49.540;8.574;2022-08-21T07:05:48;20.70;60.80
3348;DHT22;1687;49.540;8.574;2022-08-21T07:08:14;20.80;61.50
3348;DHT22;1687;49.540;8.574;2022-08-21T07:10:40;20.80;60.40
3348;DHT22;1687;49.540;8.574;2022-08-21T07:13:05;20.80;60.60
3348;DHT22;1687;49.540;8.574;2022-08-21T07:15:31;20.90;60.60
3348;DHT22;1687;49.540;8.574;2022-08-21T07:18:00;20.90;60.30
3348;DHT22;1687;49.540;8.574;2022-08-21T07:20:27;20.90;60.10
3348;DHT22;1687;49.540;8.574;2022-08-21T07:22:55;21.00;60.20
3348;DHT22;1687;49.540;8.574;2022-08-21T07:25:25;21.10;60.00
3348;DHT22;1687;49.540;8.574;2022-08-21T07:27:51;21.30;60.90
3348;DHT22;1687;49.540;8.574;2022-08-21T07:30:17;21.30;59.80
3348;DHT22;1687;49.540;8.574;2022-08-21T07:32:42;21.50;59.90
3348;DHT22;1687;49.540;8.574;2022-08-21T07:35:09;21.70;59.80
3348;DHT22;1687;49.540;8.574;2022-08-21T07:37:35;21.80;59.50
3348;DHT22;1687;49.540;8.574;2022-08-21T07:40:01;21.90;59.60
3348;DHT22;1687;49.540;8.574;2022-08-21T07:42:26;22.00;59.30
3348;DHT22;1687;49.540;8.574;2022-08-21T07:44:52;22.00;59.20
3348;DHT22;1687;49.540;8.574;2022-08-21T07:47:20;22.10;59.30
3348;DHT22;1687;49.540;8.574;2022-08-21T07:49:46;22.30;59.20
3348;DHT22;1687;49.540;8.574;2022-08-21T07:52:11;22.40;59.10
3348;DHT22;1687;49.540;8.574;2022-08-21T07:54:37;22.60;59.00
3348;DHT22;1687;49.540;8.574;2022-08-21T07:57:03;22.70;58.90
3348;DHT22;1687;49.540;8.574;2022-08-21T07:59:29;22.80;58.70
3348;DHT22;1687;49.540;8.574;2022-08-21T08:01:55;23.00;58.60
3348;DHT22;1687;49.540;8.574;2022-08-21T08:04:21;23.00;58.40
3348;DHT22;1687;49.540;8.574;2022-08-21T08:06:47;23.00;58.00
3348;DHT22;1687;49.540;8.574;2022-08-21T08:09:13;22.90;57.80
3348;DHT22;1687;49.540;8.574;2022-08-21T08:11:40;22.90;57.80
3348;DHT22;1687;49.540;8.574;2022-08-21T08:14:09;23.00;57.80
3348;DHT22;1687;49.540;8.574;2022-08-21T08:16:34;23.10;57.80
3348;DHT22;1687;49.540;8.574;2022-08-21T08:19:00;23.30;57.70
3348;DHT22;1687;49.540;8.574;2022-08-21T08:21:26;23.50;57.70
3348;DHT22;1687;49.540;8.574;2022-08-21T08:23:52;23.60;57.60
3348;DHT22;1687;49.540;8.574;2022-08-21T08:26:18;23.70;57.50
3348;DHT22;1687;49.540;8.574;2022-08-21T08:28:44;23.90;57.30
3348;DHT22;1687;49.540;8.574;2022-08-21T08:31:12;23.90;57.20
3348;DHT22;1687;49.540;8.574;2022-08-21T08:33:37;24.00;57.20
3348;DHT22;1687;49.540;8.574;2022-08-21T08:36:03;24.20;57.10
3348;DHT22;1687;49.540;8.574;2022-08-21T08:38:29;24.30;57.00
3348;DHT22;1687;49.540;8.574;2022-08-21T08:41:16;24.40;56.80
3348;DHT22;1687;49.540;8.574;2022-08-21T08:43:50;24.60;57.00
3348;DHT22;1687;49.540;8.574;2022-08-21T08:46:30;24.80;56.90
3348;DHT22;1687;49.540;8.574;2022-08-21T08:49:05;25.00;56.80
3348;DHT22;1687;49.540;8.574;2022-08-21T08:52:03;25.00;56.40
3348;DHT22;1687;49.540;8.574;2022-08-21T08:54:35;25.10;56.40
3348;DHT22;1687;49.540;8.574;2022-08-21T08:57:09;25.20;56.30
3348;DHT22;1687;49.540;8.574;2022-08-21T08:59:40;25.30;56.00
3348;DHT22;1687;49.540;8.574;2022-08-21T09:02:11;25.30;56.00
3348;DHT22;1687;49.540;8.574;2022-08-21T09:04:39;25.40;56.00
3348;DHT22;1687;49.540;8.574;2022-08-21T09:07:32;25.50;55.90
3348;DHT22;1687;49.540;8.574;2022-08-21T09:10:24;25.60;55.70
3348;DHT22;1687;49.540;8.574;2022-08-21T09:12:59;25.70;55.40
3348;DHT22;1687;49.540;8.574;2022-08-21T09:15:46;25.70;55.40
3348;DHT22;1687;49.540;8.574;2022-08-21T09:24:53;25.90;54.70
3348;DHT22;1687;49.540;8.574;2022-08-21T09:27:33;26.10;54.50
3348;DHT22;1687;49.540;8.574;2022-08-21T09:29:59;26.20;54.30
3348;DHT22;1687;49.540;8.574;2022-08-21T09:32:27;26.40;54.20
3348;DHT22;1687;49.540;8.574;2022-08-21T09:35:10;26.50;54.00
3348;DHT22;1687;49.540;8.574;2022-08-21T09:37:57;26.60;53.80
3348;DHT22;1687;49.540;8.574;2022-08-21T09:45:47;27.00;53.10
3348;DHT22;1687;49.540;8.574;2022-08-21T09:48:23;27.00;52.80
3348;DHT22;1687;49.540;8.574;2022-08-21T09:50:51;27.10;52.50
3348;DHT22;1687;49.540;8.574;2022-08-21T09:53:25;27.30;52.30
3348;DHT22;1687;49.540;8.574;2022-08-21T09:56:00;27.30;51.90
3348;DHT22;1687;49.540;8.574;2022-08-21T09:58:49;27.30;51.80
3348;DHT22;1687;49.540;8.574;2022-08-21T10:01:21;27.20;51.50
3348;DHT22;1687;49.540;8.574;2022-08-21T10:04:01;27.30;51.60
3348;DHT22;1687;49.540;8.574;2022-08-21T10:06:28;27.50;51.40
3348;DHT22;1687;49.540;8.574;2022-08-21T10:09:10;27.40;50.90
3348;DHT22;1687;49.540;8.574;2022-08-21T10:11:39;27.50;51.00
3348;DHT22;1687;49.540;8.574;2022-08-21T10:20:29;28.00;50.40
3348;DHT22;1687;49.540;8.574;2022-08-21T10:26:11;27.80;49.80
3348;DHT22;1687;49.540;8.574;2022-08-21T10:29:14;27.60;49.60
3348;DHT22;1687;49.540;8.574;2022-08-21T10:32:22;27.50;49.50
3348;DHT22;1687;49.540;8.574;2022-08-21T10:34:59;27.60;49.20
3348;DHT22;1687;49.540;8.574;2022-08-21T10:37:48;27.50;49.00
3348;DHT22;1687;49.540;8.574;2022-08-21T10:40:42;27.30;48.80
3348;DHT22;1687;49.540;8.574;2022-08-21T10:43:21;27.30;48.80
3348;DHT22;1687;49.540;8.574;2022-08-21T10:48:46;27.20;48.50
3348;DHT22;1687;49.540;8.574;2022-08-21T10:54:13;27.20;48.50
3348;DHT22;1687;49.540;8.574;2022-08-21T10:56:58;27.40;48.40
3348;DHT22;1687;49.540;8.574;2022-08-21T10:59:44;27.50;48.10
3348;DHT22;1687;49.540;8.574;2022-08-21T11:02:26;27.60;47.90
3348;DHT22;1687;49.540;8.574;2022-08-21T11:05:02;27.70;47.80
3348;DHT22;1687;49.540;8.574;2022-08-21T11:07:36;27.70;47.40
3348;DHT22;1687;49.540;8.574;2022-08-21T11:10:23;27.70;47.50
3348;DHT22;1687;49.540;8.574;2022-08-21T11:12:58;27.80;47.50
3348;DHT22;1687;49.540;8.574;2022-08-21T11:15:59;27.80;47.20
3348;DHT22;1687;49.540;8.574;2022-08-21T11:18:37;27.70;46.90
3348;DHT22;1687;49.540;8.574;2022-08-21T11:21:42;27.60;46.40
3348;DHT22;1687;49.540;8.574;2022-08-21T11:24:32;27.60;46.50
3348;DHT22;1687;49.540;8.574;2022-08-21T11:27:14;27.70;46.40
3348;DHT22;1687;49.540;8.574;2022-08-21T11:29:52;27.70;46.00
3348;DHT22;1687;49.540;8.574;2022-08-21T11:38:41;27.70;45.50
3348;DHT22;1687;49.540;8.574;2022-08-21T11:43:48;27.90;45.30
3348;DHT22;1687;49.540;8.574;2022-08-21T11:52:21;27.90;45.00
3348;DHT22;1687;49.540;8.574;2022-08-21T11:55:00;28.10;45.00
3348;DHT22;1687;49.540;8.574;2022-08-21T12:00:30;28.30;44.80
3348;DHT22;1687;49.540;8.574;2022-08-21T12:03:41;28.20;44.40
3348;DHT22;1687;49.540;8.574;2022-08-21T12:06:04;28.10;44.40
3348;DHT22;1687;49.540;8.574;2022-08-21T12:08:40;28.10;44.20
3348;DHT22;1687;49.540;8.574;2022-08-21T12:16:34;28.20;43.80
3348;DHT22;1687;49.540;8.574;2022-08-21T12:21:52;28.30;43.80
3348;DHT22;1687;49.540;8.574;2022-08-21T12:24:36;28.30;43.50
3348;DHT22;1687;49.540;8.574;2022-08-21T12:30:06;28.30;43.20
3348;DHT22;1687;49.540;8.574;2022-08-21T12:32:54;28.30;43.00
3348;DHT22;1687;49.540;8.574;2022-08-21T12:35:31;28.20;42.90
3348;DHT22;1687;49.540;8.574;2022-08-21T12:38:26;28.10;42.80
3348;DHT22;1687;49.540;8.574;2022-08-21T12:41:00;28.10;42.80
3348;DHT22;1687;49.540;8.574;2022-08-21T12:43:42;28.20;42.80
3348;DHT22;1687;49.540;8.574;2022-08-21T12:46:29;28.40;42.80
3348;DHT22;1687;49.540;8.574;2022-08-21T12:49:05;28.50;42.70
3348;DHT22;1687;49.540;8.574;2022-08-21T12:51:51;28.50;42.50
3348;DHT22;1687;49.540;8.574;2022-08-21T12:54:29;28.60;42.50
3348;DHT22;1687;49.540;8.574;2022-08-21T12:57:03;28.60;42.50
3348;DHT22;1687;49.540;8.574;2022-08-21T12:59:31;28.60;42.40
3348;DHT22;1687;49.540;8.574;2022-08-21T13:02:00;28.50;42.20
3348;DHT22;1687;49.540;8.574;2022-08-21T13:04:37;28.40;42.10
3348;DHT22;1687;49.540;8.574;2022-08-21T13:07:13;28.50;42.20
3348;DHT22;1687;49.540;8.574;2022-08-21T13:09:51;28.60;42.10
3348;DHT22;1687;49.540;8.574;2022-08-21T13:12:20;28.60;42.00
3348;DHT22;1687;49.540;8.574;2022-08-21T13:14:48;28.60;41.90
3348;DHT22;1687;49.540;8.574;2022-08-21T13:17:18;28.60;41.90
3348;DHT22;1687;49.540;8.574;2022-08-21T13:19:57;28.60;41.70
3348;DHT22;1687;49.540;8.574;2022-08-21T13:22:25;28.50;41.70
3348;DHT22;1687;49.540;8.574;2022-08-21T13:24:51;28.50;41.60
3348;DHT22;1687;49.540;8.574;2022-08-21T13:27:27;28.60;41.60
3348;DHT22;1687;49.540;8.574;2022-08-21T13:30:24;28.70;41.70
3348;DHT22;1687;49.540;8.574;2022-08-21T13:32:55;28.90;41.60
3348;DHT22;1687;49.540;8.574;2022-08-21T13:38:13;29.30;41.40
3348;DHT22;1687;49.540;8.574;2022-08-21T13:40:50;29.40;41.30
3348;DHT22;1687;49.540;8.574;2022-08-21T13:43:22;29.60;41.10
3348;DHT22;1687;49.540;8.574;2022-08-21T13:45:53;29.70;41.10
3348;DHT22;1687;49.540;8.574;2022-08-21T13:48:20;29.80;41.00
3348;DHT22;1687;49.540;8.574;2022-08-21T13:50:49;30.20;41.20
3348;DHT22;1687;49.540;8.574;2022-08-21T13:53:35;31.00;41.30
3348;DHT22;1687;49.540;8.574;2022-08-21T13:56:22;32.20;41.40
3348;DHT22;1687;49.540;8.574;2022-08-21T13:58:57;32.50;40.30
3348;DHT22;1687;49.540;8.574;2022-08-21T14:01:31;31.90;39.50
3348;DHT22;1687;49.540;8.574;2022-08-21T14:04:22;32.30;40.00
3348;DHT22;1687;49.540;8.574;2022-08-21T14:06:51;33.70;39.80
3348;DHT22;1687;49.540;8.574;2022-08-21T14:09:41;34.80;39.10
3348;DHT22;1687;49.540;8.574;2022-08-21T14:12:24;35.80;38.50
3348;DHT22;1687;49.540;8.574;2022-08-21T14:14:53;36.60;37.90
3348;DHT22;1687;49.540;8.574;2022-08-21T14:17:36;37.10;36.90
3348;DHT22;1687;49.540;8.574;2022-08-21T14:20:07;37.60;36.60
3348;DHT22;1687;49.540;8.574;2022-08-21T14:22:42;37.80;36.00
3348;DHT22;1687;49.540;8.574;2022-08-21T14:25:26;38.00;35.50
3348;DHT22;1687;49.540;8.574;2022-08-21T14:28:12;37.60;34.90
3348;DHT22;1687;49.540;8.574;2022-08-21T14:30:41;37.20;35.20
3348;DHT22;1687;49.540;8.574;2022-08-21T14:33:16;37.90;35.40
3348;DHT22;1687;49.540;8.574;2022-08-21T14:35:47;38.00;34.40
3348;DHT22;1687;49.540;8.574;2022-08-21T14:38:19;37.70;34.40
3348;DHT22;1687;49.540;8.574;2022-08-21T14:40:51;36.80;33.90
3348;DHT22;1687;49.540;8.574;2022-08-21T14:43:20;35.90;33.70
3348;DHT22;1687;49.540;8.574;2022-08-21T14:45:47;34.70;33.70
3348;DHT22;1687;49.540;8.574;2022-08-21T14:48:13;34.00;34.20
3348;DHT22;1687;49.540;8.574;2022-08-21T14:50:39;33.40;34.10
3348;DHT22;1687;49.540;8.574;2022-08-21T14:53:07;32.80;34.10
3348;DHT22;1687;49.540;8.574;2022-08-21T14:55:33;32.40;34.70
3348;DHT22;1687;49.540;8.574;2022-08-21T14:58:22;32.50;35.00
3348;DHT22;1687;49.540;8.574;2022-08-21T15:00:50;33.00;35.40
3348;DHT22;1687;49.540;8.574;2022-08-21T15:03:19;35.00;36.00
3348;DHT22;1687;49.540;8.574;2022-08-21T15:05:47;37.30;35.70
3348;DHT22;1687;49.540;8.574;2022-08-21T15:08:13;39.20;35.00
3348;DHT22;1687;49.540;8.574;2022-08-21T15:10:39;40.60;34.30
3348;DHT22;1687;49.540;8.574;2022-08-21T15:13:05;41.40;33.10
3348;DHT22;1687;49.540;8.574;2022-08-21T15:16:29;42.30;32.90
3348;DHT22;1687;49.540;8.574;2022-08-21T15:18:48;43.40;32.80
3348;DHT22;1687;49.540;8.574;2022-08-21T15:21:13;44.20;31.70
3348;DHT22;1687;49.540;8.574;2022-08-21T15:23:39;44.50;31.40
3348;DHT22;1687;49.540;8.574;2022-08-21T15:26:05;44.50;30.40
3348;DHT22;1687;49.540;8.574;2022-08-21T15:28:31;45.00;30.50
3348;DHT22;1687;49.540;8.574;2022-08-21T15:30:59;45.50;29.90
3348;DHT22;1687;49.540;8.574;2022-08-21T15:33:25;45.50;29.40
3348;DHT22;1687;49.540;8.574;2022-08-21T15:35:51;45.50;29.30
3348;DHT22;1687;49.540;8.574;2022-08-21T15:38:17;45.90;29.40
3348;DHT22;1687;49.540;8.574;2022-08-21T15:40:43;46.00;29.40
3348;DHT22;1687;49.540;8.574;2022-08-21T15:43:23;46.00;28.90
3348;DHT22;1687;49.540;8.574;2022-08-21T15:45:50;45.80;28.70
3348;DHT22;1687;49.540;8.574;2022-08-21T15:48:16;45.80;28.50
3348;DHT22;1687;49.540;8.574;2022-08-21T15:50:42;45.70;28.40
3348;DHT22;1687;49.540;8.574;2022-08-21T15:53:08;46.00;28.40
3348;DHT22;1687;49.540;8.574;2022-08-21T15:55:34;46.20;28.00
3348;DHT22;1687;49.540;8.574;2022-08-21T15:58:00;46.20;27.80
3348;DHT22;1687;49.540;8.574;2022-08-21T16:00:32;46.50;27.80
3348;DHT22;1687;49.540;8.574;2022-08-21T16:03:00;46.70;27.70
3348;DHT22;1687;49.540;8.574;2022-08-21T16:05:29;46.20;27.00
3348;DHT22;1687;49.540;8.574;2022-08-21T16:07:54;45.90;26.90
3348;DHT22;1687;49.540;8.574;2022-08-21T16:10:22;45.40;26.80
3348;DHT22;1687;49.540;8.574;2022-08-21T16:12:51;44.00;26.50
3348;DHT22;1687;49.540;8.574;2022-08-21T16:15:20;42.10;26.50
3348;DHT22;1687;49.540;8.574;2022-08-21T16:17:47;40.60;26.80
3348;DHT22;1687;49.540;8.574;2022-08-21T16:20:17;39.30;26.90
3348;DHT22;1687;49.540;8.574;2022-08-21T16:22:45;38.60;27.40
3348;DHT22;1687;49.540;8.574;2022-08-21T16:25:12;37.70;27.30
3348;DHT22;1687;49.540;8.574;2022-08-21T16:27:40;36.90;27.60
3348;DHT22;1687;49.540;8.574;2022-08-21T16:30:07;36.40;27.90
3348;DHT22;1687;49.540;8.574;2022-08-21T16:32:34;35.90;28.00
3348;DHT22;1687;49.540;8.574;2022-08-21T16:35:01;35.40;28.20
3348;DHT22;1687;49.540;8.574;2022-08-21T16:37:28;34.90;28.20
3348;DHT22;1687;49.540;8.574;2022-08-21T16:39:53;34.20;28.30
3348;DHT22;1687;49.540;8.574;2022-08-21T16:42:22;33.80;28.80
3348;DHT22;1687;49.540;8.574;2022-08-21T16:44:50;33.40;28.80
3348;DHT22;1687;49.540;8.574;2022-08-21T16:47:16;32.90;29.10
3348;DHT22;1687;49.540;8.574;2022-08-21T16:49:42;32.70;29.30
3348;DHT22;1687;49.540;8.574;2022-08-21T16:52:08;32.50;29.40
3348;DHT22;1687;49.540;8.574;2022-08-21T16:54:34;32.20;29.60
3348;DHT22;1687;49.540;8.574;2022-08-21T16:56:59;32.10;29.70
3348;DHT22;1687;49.540;8.574;2022-08-21T16:59:26;31.80;29.70
3348;DHT22;1687;49.540;8.574;2022-08-21T17:01:52;31.50;29.80
3348;DHT22;1687;49.540;8.574;2022-08-21T17:04:19;31.30;30.00
3348;DHT22;1687;49.540;8.574;2022-08-21T17:06:46;31.10;30.10
3348;DHT22;1687;49.540;8.574;2022-08-21T17:09:12;30.80;30.30
3348;DHT22;1687;49.540;8.574;2022-08-21T17:11:40;30.60;30.50
3348;DHT22;1687;49.540;8.574;2022-08-21T17:14:25;30.50;30.70
3348;DHT22;1687;49.540;8.574;2022-08-21T17:16:53;30.30;30.90
3348;DHT22;1687;49.540;8.574;2022-08-21T17:19:20;30.10;31.10
3348;DHT22;1687;49.540;8.574;2022-08-21T17:21:45;29.90;31.30
3348;DHT22;1687;49.540;8.574;2022-08-21T17:24:11;29.80;31.50